Time;durP1;ratioP1;P1;durP2;ratioP2;P2;SDS_P1;SDS_P2;PMS_P1;PMS_P2;Temp;Humidity;BMP_temperature;BMP_pressure;BME280_temperature;BME280_humidity;BME280_pressure;Samples;Min_cycle;Max_cycle;Signal;HPM_P1;HPM_P2
2022/02/07 00:03:45;;;;;;;0.40;0.40;;;;;;;0.72;100.00;94562.06;5033962;28;20175;-78
2022/02/07 00:06:13;;;;;;;0.40;0.40;;;;;;;0.62;100.00;94570.47;5033248;28;20265;-78
2022/02/07 00:08:39;;;;;;;0.43;0.30;;;;;;;0.71;100.00;94583.41;5034636;28;20174;-78
2022/02/07 00:11:04;;;;;;;0.40;0.40;;;;;;;0.68;100.00;94616.03;5018015;28;20265;-79
2022/02/07 00:13:29;;;;;;;0.40;0.40;;;;;;;0.71;100.00;94638.84;5035476;28;20170;-78
2022/02/07 00:15:55;;;;;;;0.70;0.50;;;;;;;0.74;100.00;94621.53;5034034;28;20188;-79
2022/02/07 00:18:22;;;;;;;1.10;0.30;;;;;;;0.79;100.00;94624.53;5034678;28;20626;-79
2022/02/07 00:20:47;;;;;;;2.50;0.50;;;;;;;0.80;100.00;94638.16;5020718;28;20256;-78
2022/02/07 00:23:13;;;;;;;0.47;0.30;;;;;;;0.78;100.00;94633.13;5020263;28;20182;-79
2022/02/07 00:25:38;;;;;;;1.00;0.40;;;;;;;0.79;100.00;94631.41;5037378;28;20181;-78
2022/02/07 00:28:03;;;;;;;0.40;0.40;;;;;;;0.75;100.00;94633.38;5021212;28;20554;-78
2022/02/07 00:30:29;;;;;;;0.70;0.30;;;;;;;0.70;100.00;94660.97;5037085;28;20672;-78
2022/02/07 00:32:54;;;;;;;0.37;0.30;;;;;;;0.72;100.00;94664.25;5035696;28;20181;-79
2022/02/07 00:35:23;;;;;;;0.30;0.30;;;;;;;0.61;100.00;94671.03;5036845;28;20185;-78
2022/02/07 00:37:51;;;;;;;0.30;0.30;;;;;;;0.67;100.00;94660.41;5035250;28;20232;-77
2022/02/07 00:40:32;;;;;;;0.40;0.30;;;;;;;0.59;100.00;94652.47;5033215;28;20655;-78
2022/02/07 00:43:15;;;;;;;0.70;0.70;;;;;;;0.60;100.00;94641.31;5034707;28;20170;-77
2022/02/07 00:45:50;;;;;;;0.53;0.40;;;;;;;0.66;100.00;94657.03;5036371;28;20203;-78
2022/02/07 00:48:16;;;;;;;1.53;0.40;;;;;;;0.68;100.00;94667.13;5035494;28;20189;-79
2022/02/07 00:50:42;;;;;;;0.90;0.40;;;;;;;0.71;100.00;94672.88;5034751;28;20213;-77
2022/02/07 00:53:13;;;;;;;1.73;0.37;;;;;;;0.74;100.00;94674.38;5034678;28;20178;-78
2022/02/07 00:55:39;;;;;;;0.90;0.30;;;;;;;0.70;100.00;94666.09;5019026;28;20190;-77
2022/02/07 00:58:04;;;;;;;0.50;0.50;;;;;;;0.72;100.00;94663.47;5035150;28;20316;-78
2022/02/07 01:00:31;;;;;;;1.07;0.30;;;;;;;0.79;100.00;94669.72;5035418;28;20676;-78
2022/02/07 01:02:56;;;;;;;0.47;0.47;;;;;;;0.81;100.00;94678.94;5035127;28;20264;-78
2022/02/07 01:05:21;;;;;;;0.83;0.30;;;;;;;0.85;100.00;94675.22;5018535;28;20200;-78
2022/02/07 01:07:49;;;;;;;1.07;0.40;;;;;;;0.81;100.00;94694.28;5019125;28;20182;-78
2022/02/07 01:10:20;;;;;;;0.63;0.50;;;;;;;0.86;100.00;94699.03;5034747;28;20227;-80
2022/02/07 01:21:13;;;;;;;1.43;0.50;;;;;;;0.87;100.00;94733.09;5038564;28;20232;-78
2022/02/07 01:48:28;;;;;;;1.00;0.40;;;;;;;1.04;100.00;94827.31;5034853;28;20727;-77
2022/02/07 01:53:55;;;;;;;0.87;0.30;;;;;;;1.07;100.00;94835.59;5034121;28;20558;-77
2022/02/07 01:56:10;;;;;;;2.53;0.50;;;;;;;1.08;100.00;94844.09;5034196;28;20186;-77
2022/02/07 01:58:35;;;;;;;3.13;0.40;;;;;;;1.03;100.00;94851.25;5034475;28;20184;-78
2022/02/07 02:01:01;;;;;;;1.27;0.73;;;;;;;1.06;100.00;94853.56;5033969;28;20226;-78
2022/02/07 02:03:26;;;;;;;2.93;0.63;;;;;;;1.12;100.00;94865.94;5036742;28;20186;-78
2022/02/07 02:05:52;;;;;;;1.07;0.60;;;;;;;1.07;100.00;94873.94;5037555;28;20225;-79
2022/02/07 02:08:17;;;;;;;1.13;0.50;;;;;;;1.14;100.00;94882.81;5037551;28;20240;-78
2022/02/07 02:10:45;;;;;;;1.80;0.50;;;;;;;1.08;100.00;94887.56;5038746;28;20201;-79
2022/02/07 02:13:19;;;;;;;0.77;0.63;;;;;;;1.11;100.00;94879.66;5036344;28;20250;-79
2022/02/07 02:15:56;;;;;;;1.23;0.80;;;;;;;1.07;100.00;94919.16;5042354;28;20182;-79
2022/02/07 02:47:56;;;;;;;2.60;0.83;;;;;;;1.07;100.00;94980.53;5056914;28;20203;-77
2022/02/07 02:50:35;;;;;;;1.73;1.00;;;;;;;1.10;100.00;94993.09;5056940;28;20238;-78
2022/02/07 02:53:11;;;;;;;1.20;0.87;;;;;;;1.14;100.00;95012.41;5040304;28;20177;-78
2022/02/07 02:55:38;;;;;;;2.97;1.17;;;;;;;1.18;100.00;95008.75;5038939;28;20684;-78
2022/02/07 02:58:05;;;;;;;1.57;0.90;;;;;;;1.07;100.00;95018.88;5055381;28;20181;-78
2022/02/07 03:00:30;;;;;;;3.33;1.10;;;;;;;0.97;99.92;95041.69;5052245;28;20617;-77
2022/02/07 03:02:56;;;;;;;1.10;0.80;;;;;;;0.99;100.00;95028.81;5034832;28;20177;-77
2022/02/07 03:05:21;;;;;;;3.07;1.20;;;;;;;0.93;99.95;95034.31;5051764;28;20182;-79
2022/02/07 03:07:47;;;;;;;1.60;0.90;;;;;;;0.96;100.00;95044.34;5051734;28;20188;-78
2022/02/07 03:10:25;;;;;;;2.17;0.90;;;;;;;0.91;99.63;95057.44;5035891;28;20863;-77
2022/02/07 03:13:34;;;;;;;3.27;1.10;;;;;;;0.94;99.06;95062.34;5038144;28;20239;-77
2022/02/07 03:18:28;;;;;;;3.93;0.97;;;;;;;0.96;97.86;95075.00;5052388;28;20191;-77
2022/02/07 03:20:54;;;;;;;2.73;1.03;;;;;;;1.01;97.85;95083.22;5051477;28;20198;-76
2022/02/07 03:23:19;;;;;;;2.13;1.03;;;;;;;1.00;97.22;95076.47;5051483;28;20645;-75
2022/02/07 03:25:45;;;;;;;1.83;0.90;;;;;;;0.98;96.17;95062.97;5034923;28;20203;-77
2022/02/07 03:28:11;;;;;;;5.23;1.10;;;;;;;0.96;96.47;95055.38;5052613;28;20180;-77
2022/02/07 03:30:37;;;;;;;3.30;1.33;;;;;;;1.03;95.62;95066.84;5051758;28;20236;-77
2022/02/07 03:33:04;;;;;;;3.83;1.10;;;;;;;0.99;95.51;95074.84;5050653;28;20182;-77
2022/02/07 03:35:29;;;;;;;5.33;1.57;;;;;;;0.98;95.19;95103.88;5051439;28;20175;-77
2022/02/07 03:37:54;;;;;;;1.70;1.00;;;;;;;0.96;95.33;95180.66;5051001;28;20681;-77
2022/02/07 03:40:20;;;;;;;0.97;0.60;;;;;;;0.22;100.00;95214.28;5049897;28;20221;-76
2022/02/07 03:42:45;;;;;;;1.17;0.60;;;;;;;0.03;100.00;95216.31;5049822;28;20547;-77
2022/02/07 03:45:10;;;;;;;4.53;0.50;;;;;;;-0.33;100.00;95203.09;5033298;28;20228;-76
2022/02/07 03:47:36;;;;;;;1.53;0.50;;;;;;;-0.50;100.00;95231.31;5033536;28;20226;-76
2022/02/07 03:50:01;;;;;;;1.03;0.50;;;;;;;-0.56;100.00;95216.34;5049521;28;20209;-77
2022/02/07 03:52:26;;;;;;;4.33;0.53;;;;;;;-0.58;100.00;95241.97;5050475;28;20176;-78
2022/02/07 03:54:53;;;;;;;0.73;0.43;;;;;;;-0.59;100.00;95242.06;5037487;28;20191;-77
2022/02/07 03:57:18;;;;;;;2.10;0.50;;;;;;;-0.52;100.00;95245.91;5039993;28;20690;-77
2022/02/07 03:59:43;;;;;;;3.53;0.73;;;;;;;-0.45;100.00;95262.47;5057660;28;20234;-77
2022/02/07 04:02:09;;;;;;;0.73;0.60;;;;;;;-0.48;100.00;95279.69;5055792;28;20177;-77
2022/02/07 04:04:34;;;;;;;1.03;0.50;;;;;;;-0.55;100.00;95284.31;5039851;28;20184;-77
2022/02/07 04:07:00;;;;;;;5.40;0.70;;;;;;;-0.41;100.00;95299.66;5056747;28;20789;-75
2022/02/07 04:09:32;;;;;;;0.93;0.53;;;;;;;-0.44;100.00;95310.06;5058320;28;20181;-79
2022/02/07 04:12:05;;;;;;;1.53;0.60;;;;;;;-0.43;100.00;95316.81;5057561;28;20183;-77
2022/02/07 04:14:30;;;;;;;2.50;0.70;;;;;;;-0.47;100.00;95333.16;5045832;28;20177;-76
2022/02/07 04:16:55;;;;;;;3.00;0.70;;;;;;;-0.46;100.00;95345.00;5061808;28;20198;-77
2022/02/07 04:19:23;;;;;;;3.30;0.67;;;;;;;-0.36;100.00;95353.78;5062305;28;20173;-76
2022/02/07 04:21:50;;;;;;;2.83;0.73;;;;;;;-0.41;100.00;95367.72;5059136;28;20173;-77
2022/02/07 04:24:17;;;;;;;1.70;1.00;;;;;;;-0.48;100.00;95372.34;5061200;28;20462;-77
2022/02/07 04:26:42;;;;;;;1.87;0.80;;;;;;;-0.42;100.00;95377.13;5061882;28;20650;-76
2022/02/07 04:29:08;;;;;;;2.80;1.03;;;;;;;-0.36;100.00;95381.03;5063604;28;20183;-77
2022/02/07 04:31:33;;;;;;;3.23;1.00;;;;;;;-0.35;100.00;95392.91;5062763;28;20205;-77
2022/02/07 04:33:58;;;;;;;3.27;0.70;;;;;;;-0.41;100.00;95411.09;5062784;28;20181;-77
2022/02/07 04:36:24;;;;;;;2.43;0.87;;;;;;;-0.41;100.00;95417.03;5064680;28;20526;-77
2022/02/07 04:38:49;;;;;;;1.50;0.63;;;;;;;-0.47;100.00;95422.44;5061406;28;20181;-77
2022/02/07 04:41:14;;;;;;;4.40;0.73;;;;;;;-0.43;100.00;95420.56;5045686;28;20194;-76
2022/02/07 04:43:47;;;;;;;2.07;0.73;;;;;;;-0.46;100.00;95436.84;5046832;28;20651;-77
2022/02/07 04:49:14;;;;;;;5.60;0.93;;;;;;;-0.53;100.00;95445.78;5063360;28;20188;-76
2022/02/07 04:51:51;;;;;;;2.17;0.67;;;;;;;-0.48;100.00;95456.53;5040634;28;20232;-77
2022/02/07 04:54:33;;;;;;;1.77;0.67;;;;;;;-0.46;100.00;95462.38;5030346;28;20200;-77
2022/02/07 05:00:25;;;;;;;2.27;0.73;;;;;;;-0.32;100.00;95465.00;5044842;28;20213;-79
2022/02/07 05:13:46;;;;;;;4.97;2.00;;;;;;;-0.31;100.00;95507.47;5056549;28;20245;-77
2022/02/07 05:16:23;;;;;;;3.10;1.20;;;;;;;-0.25;100.00;95513.16;5055559;28;20185;-77
2022/02/07 05:18:50;;;;;;;1.90;1.00;;;;;;;-0.28;100.00;95516.69;5054871;28;20248;-77
2022/02/07 05:21:16;;;;;;;3.20;0.83;;;;;;;-0.19;100.00;95528.94;5029480;28;20255;-77
2022/02/07 05:23:42;;;;;;;3.20;1.00;;;;;;;-0.18;100.00;95528.03;5035411;28;20228;-76
2022/02/07 05:26:07;;;;;;;3.40;1.23;;;;;;;-0.17;100.00;95536.53;5032862;28;20192;-78
2022/02/07 05:28:32;;;;;;;2.57;1.10;;;;;;;-0.14;100.00;95538.91;5019317;28;20186;-78
2022/02/07 05:30:58;;;;;;;2.10;1.10;;;;;;;-0.10;100.00;95538.66;5035895;28;20214;-76
2022/02/07 05:33:23;;;;;;;3.43;1.17;;;;;;;-0.06;100.00;95545.25;5033529;28;20178;-78
2022/02/07 05:35:48;;;;;;;3.50;1.47;;;;;;;-0.07;100.00;95545.34;5017639;28;20208;-78
2022/02/07 05:38:14;;;;;;;1.90;0.80;;;;;;;-0.06;100.00;95552.09;5034751;28;20180;-77
2022/02/07 05:43:08;;;;;;;4.40;1.10;;;;;;;-0.10;100.00;95565.91;5041685;28;20182;-78
2022/02/07 05:45:34;;;;;;;2.20;0.90;;;;;;;-0.06;100.00;95568.22;5034887;28;20185;-78
2022/02/07 05:47:59;;;;;;;3.17;1.17;;;;;;;-0.13;100.00;95572.00;5016537;28;20224;-77
2022/02/07 05:50:25;;;;;;;5.60;1.57;;;;;;;-0.09;99.19;95576.06;5033833;28;20271;-77
2022/02/07 05:52:50;;;;;;;4.47;1.53;;;;;;;-0.05;99.17;95590.28;5033226;28;20613;-78
2022/02/07 05:55:15;;;;;;;3.13;1.00;;;;;;;-0.07;99.02;95591.28;5034340;28;20181;-78
2022/02/07 05:57:41;;;;;;;4.27;1.60;;;;;;;0.00;97.73;95597.72;5016476;28;20235;-78
2022/02/07 06:00:07;;;;;;;5.40;1.93;;;;;;;-0.02;98.40;95602.88;5033482;28;20316;-78
2022/02/07 06:02:32;;;;;;;1.30;0.90;;;;;;;-0.03;98.25;95615.72;5015621;28;20185;-76
2022/02/07 06:04:58;;;;;;;3.37;1.20;;;;;;;-0.05;97.85;95617.56;5032221;28;20232;-77
2022/02/07 06:07:23;;;;;;;3.60;1.10;;;;;;;-0.13;97.86;95630.72;5031410;28;20186;-79
2022/02/07 06:09:48;;;;;;;1.77;1.30;;;;;;;-0.16;97.72;95642.84;5020107;28;20705;-82
2022/02/07 06:12:13;;;;;;;3.23;1.17;;;;;;;-0.19;97.99;95648.91;5015108;28;20277;-78
2022/02/07 06:14:39;;;;;;;3.50;1.13;;;;;;;-0.19;97.41;95659.09;5032099;28;20576;-79
2022/02/07 06:17:04;;;;;;;3.60;1.10;;;;;;;-0.19;97.64;95666.75;5032299;28;20214;-77
2022/02/07 06:19:29;;;;;;;5.87;1.23;;;;;;;-0.20;97.82;95674.50;5031648;28;20772;-77
2022/02/07 06:21:56;;;;;;;1.43;1.10;;;;;;;-0.15;97.90;95682.75;5031101;28;20197;-77
2022/02/07 06:24:21;;;;;;;4.37;1.30;;;;;;;-0.21;97.41;95685.63;5013458;28;20185;-77
2022/02/07 06:26:46;;;;;;;3.27;1.20;;;;;;;-0.17;97.28;95700.72;5031694;28;20181;-77
2022/02/07 06:29:12;;;;;;;2.83;1.30;;;;;;;-0.16;96.70;95704.09;5031107;28;20177;-77
2022/02/07 06:31:37;;;;;;;5.33;1.40;;;;;;;-0.17;96.34;95710.09;5030140;28;20209;-77
2022/02/07 06:34:02;;;;;;;4.93;1.40;;;;;;;-0.23;96.81;95705.31;5031107;28;20224;-78
2022/02/07 06:36:27;;;;;;;5.13;1.37;;;;;;;-0.22;96.82;95712.06;5031116;28;20560;-76
2022/02/07 06:38:53;;;;;;;8.77;1.40;;;;;;;-0.18;95.94;95708.44;5014588;28;20201;-81
2022/02/07 06:41:18;;;;;;;6.90;1.20;;;;;;;-0.19;96.39;95712.72;5014340;28;20230;-79
2022/02/07 06:43:44;;;;;;;4.20;1.37;;;;;;;-0.16;96.36;95716.84;5014733;28;20185;-77
2022/02/07 06:46:09;;;;;;;7.03;1.60;;;;;;;-0.19;96.54;95714.44;5013117;28;20177;-79
2022/02/07 06:48:35;;;;;;;6.47;1.60;;;;;;;-0.10;95.31;95724.19;5015213;28;20719;-77
2022/02/07 06:51:01;;;;;;;6.50;1.70;;;;;;;-0.11;95.46;95731.00;5032038;28;20256;-79
2022/02/07 06:53:26;;;;;;;4.00;1.20;;;;;;;-0.06;95.32;95731.63;5015564;28;20214;-78
2022/02/07 06:55:51;;;;;;;7.23;1.50;;;;;;;-0.11;94.29;95737.84;5027280;28;20574;-78
2022/02/07 06:58:17;;;;;;;7.53;1.70;;;;;;;-0.15;94.52;95742.28;5049317;28;20716;-78
2022/02/07 07:00:42;;;;;;;7.97;1.47;;;;;;;-0.16;94.61;95762.78;5051801;28;20197;-79
2022/02/07 07:03:14;;;;;;;5.27;1.33;;;;;;;-0.13;94.84;95766.00;5050393;28;20201;-79
2022/02/07 07:05:40;;;;;;;6.90;1.70;;;;;;;-0.17;94.50;95769.63;5050772;28;20177;-78
2022/02/07 07:08:05;;;;;;;4.73;1.33;;;;;;;-0.05;94.23;95784.31;5046229;28;20204;-76
2022/02/07 07:10:31;;;;;;;6.03;1.53;;;;;;;-0.06;94.24;95784.41;5032974;28;20699;-79
2022/02/07 07:13:03;;;;;;;2.97;1.40;;;;;;;-0.11;94.78;95791.44;5026988;28;20196;-79
2022/02/07 07:15:36;;;;;;;4.20;1.43;;;;;;;-0.11;94.25;95801.66;5040721;28;20268;-78
2022/02/07 07:18:02;;;;;;;3.07;1.40;;;;;;;-0.04;94.28;95793.63;5050436;28;20787;-78
2022/02/07 07:20:27;;;;;;;3.63;1.60;;;;;;;-0.07;94.31;95795.53;5033087;28;20744;-78
2022/02/07 07:22:52;;;;;;;2.50;1.23;;;;;;;-0.05;94.21;95811.56;5049516;28;20660;-78
2022/02/07 07:25:18;;;;;;;3.53;1.40;;;;;;;-0.10;93.67;95814.34;5033547;28;20188;-78
2022/02/07 07:28:02;;;;;;;4.63;1.20;;;;;;;-0.15;93.74;95816.31;5033260;28;20645;-78
2022/02/07 07:30:31;;;;;;;3.27;1.67;;;;;;;-0.11;93.97;95819.53;5035030;28;20203;-78
2022/02/07 07:33:02;;;;;;;7.47;1.87;;;;;;;-0.09;93.74;95830.50;5048931;28;20188;-78
2022/02/07 07:35:27;;;;;;;6.43;2.00;;;;;;;-0.05;93.36;95825.16;5033874;28;20665;-78
2022/02/07 07:37:53;;;;;;;9.80;2.07;;;;;;;-0.06;93.38;95835.47;5050256;28;20216;-78
2022/02/07 07:40:18;;;;;;;3.67;1.93;;;;;;;0.09;93.25;95837.25;5050384;28;20193;-78
2022/02/07 07:42:51;;;;;;;4.07;1.40;;;;;;;0.06;93.75;95839.13;5049902;28;20211;-78
2022/02/07 07:45:19;;;;;;;6.93;1.47;;;;;;;0.19;92.31;95847.84;5049256;28;20233;-78
2022/02/07 07:47:46;;;;;;;5.53;1.70;;;;;;;0.18;92.02;95858.94;5049873;28;20712;-79
2022/02/07 07:50:52;;;;;;;4.30;1.40;;;;;;;0.31;92.19;95869.38;5049944;28;20208;-78
2022/02/07 07:53:15;;;;;;;7.93;1.60;;;;;;;0.20;91.85;95877.56;5049116;28;20254;-77
2022/02/07 08:03:40;;;;;;;5.77;2.37;;;;;;;0.48;90.04;95888.03;5049386;28;20251;-79
2022/02/07 08:06:11;;;;;;;4.33;1.67;;;;;;;0.61;89.47;95893.34;5050276;28;20185;-78
2022/02/07 08:11:22;;;;;;;8.57;2.30;;;;;;;0.62;89.45;95899.28;5028936;28;20217;-79
2022/02/07 08:13:47;;;;;;;3.60;1.60;;;;;;;0.68;89.41;95909.19;5049921;28;20216;-81
2022/02/07 08:16:12;;;;;;;4.20;1.80;;;;;;;0.73;88.66;95908.06;5053767;28;20190;-79
2022/02/07 08:18:38;;;;;;;7.80;1.77;;;;;;;0.76;88.89;95913.00;5051254;28;20192;-79
2022/02/07 08:21:03;;;;;;;9.03;2.07;;;;;;;0.80;88.35;95929.03;5049712;28;20268;-79
2022/02/07 08:23:29;;;;;;;5.57;1.93;;;;;;;0.87;86.71;95929.50;5029618;28;20185;-79
2022/02/07 08:25:57;;;;;;;6.40;1.77;;;;;;;0.94;87.29;95936.78;5043848;28;20214;-79
2022/02/07 08:28:22;;;;;;;5.10;2.30;;;;;;;0.85;86.44;95944.94;5051081;28;20186;-78
2022/02/07 08:30:47;;;;;;;4.23;1.80;;;;;;;0.78;87.18;95944.41;5050027;28;20217;-79
2022/02/07 08:33:13;;;;;;;6.33;1.77;;;;;;;1.01;86.79;95953.47;5049180;28;20675;-79
2022/02/07 08:35:38;;;;;;;5.53;2.03;;;;;;;0.96;86.54;95959.72;5049291;28;20188;-78
2022/02/07 08:38:03;;;;;;;8.27;2.30;;;;;;;1.07;86.37;95965.94;5050605;28;20176;-78
2022/02/07 08:40:29;;;;;;;3.30;1.60;;;;;;;1.07;86.23;95967.69;5032797;28;20204;-79
2022/02/07 08:42:55;;;;;;;4.83;1.90;;;;;;;1.04;84.50;95970.38;5054365;28;20277;-79
2022/02/07 08:45:22;;;;;;;8.20;1.70;;;;;;;1.18;85.23;95973.06;5053481;28;20315;-79
2022/02/07 08:47:48;;;;;;;8.27;2.10;;;;;;;1.22;84.61;95982.22;5053085;28;20193;-78
2022/02/07 08:50:13;;;;;;;6.20;2.20;;;;;;;1.29;84.16;95998.06;5036252;28;20221;-79
2022/02/07 08:52:43;;;;;;;5.60;1.43;;;;;;;1.30;83.21;96010.78;5052283;28;20542;-79
2022/02/07 08:55:17;;;;;;;5.23;1.87;;;;;;;1.41;84.25;96005.09;5052973;28;20219;-79
2022/02/07 08:57:46;;;;;;;8.70;2.13;;;;;;;1.35;83.31;96011.38;5042441;28;20280;-78
2022/02/07 09:07:47;;;;;;;6.97;1.73;;;;;;;1.30;82.92;96021.03;5053322;28;20223;-79
2022/02/07 09:10:12;;;;;;;4.60;1.47;;;;;;;1.27;83.17;96026.31;5052955;28;20300;-78
2022/02/07 09:12:42;;;;;;;6.73;1.80;;;;;;;1.00;83.91;96027.72;5032231;28;20264;-78
2022/02/07 09:15:28;;;;;;;16.77;2.67;;;;;;;0.92;83.46;96034.97;5044952;28;20181;-77
2022/02/07 09:17:53;;;;;;;4.23;2.10;;;;;;;1.06;83.03;96043.59;5052925;28;20407;-77
2022/02/07 09:20:18;;;;;;;5.40;1.53;;;;;;;1.05;83.20;96054.69;5053299;28;20648;-76
2022/02/07 09:22:43;;;;;;;6.37;1.73;;;;;;;1.18;83.62;96056.66;5051804;28;20178;-77
2022/02/07 09:25:09;;;;;;;6.80;1.57;;;;;;;1.26;83.76;96059.66;5036019;28;20185;-77
2022/02/07 09:27:36;;;;;;;6.07;1.90;;;;;;;1.27;81.96;96062.13;5035152;28;20202;-78
2022/02/07 09:30:06;;;;;;;6.73;1.40;;;;;;;1.35;82.13;96067.69;5051616;28;20222;-78
2022/02/07 09:32:32;;;;;;;20.30;2.07;;;;;;;1.33;82.15;96068.69;5035664;28;20235;-77
2022/02/07 09:34:57;;;;;;;6.23;2.23;;;;;;;1.35;82.06;96067.69;5035039;28;20189;-78
2022/02/07 09:37:22;;;;;;;16.03;1.97;;;;;;;1.42;82.49;96053.66;5034975;28;20184;-78
2022/02/07 09:39:48;;;;;;;7.10;2.23;;;;;;;1.51;81.66;96060.03;5031891;28;20206;-77
2022/02/07 09:42:16;;;;;;;8.37;1.53;;;;;;;1.36;81.47;96068.50;5048201;28;20192;-77
2022/02/07 09:44:46;;;;;;;17.97;2.07;;;;;;;1.45;81.00;96074.88;5051993;28;20186;-76
2022/02/07 09:47:11;;;;;;;7.03;1.80;;;;;;;1.21;81.02;96067.56;5052347;28;20640;-76
2022/02/07 09:49:36;;;;;;;9.80;1.83;;;;;;;1.41;81.63;96087.84;5053412;28;20209;-78
2022/02/07 09:52:04;;;;;;;5.80;2.53;;;;;;;1.46;81.61;96090.16;5030497;28;20747;-77
2022/02/07 09:54:29;;;;;;;21.07;2.50;;;;;;;1.57;81.97;96095.53;5046220;28;20181;-78
2022/02/07 09:56:55;;;;;;;6.63;2.00;;;;;;;1.54;82.57;96090.59;5049854;28;20187;-77
2022/02/07 09:59:26;;;;;;;55.90;4.53;;;;;;;1.53;82.28;96101.75;5034953;28;20222;-78
2022/02/07 10:01:55;;;;;;;7.43;2.03;;;;;;;1.38;82.80;96110.19;5034778;28;20182;-78
2022/02/07 10:04:25;;;;;;;15.57;2.37;;;;;;;1.48;82.66;96095.19;5036255;28;20228;-79
2022/02/07 10:14:42;;;;;;;5.77;1.63;;;;;;;2.13;80.73;96103.72;5053387;28;20181;-78
2022/02/07 10:17:33;;;;;;;8.30;1.90;;;;;;;2.39;78.93;96095.44;5051877;28;20192;-79
2022/02/07 10:20:42;;;;;;;6.47;1.90;;;;;;;2.63;77.59;96111.16;5052652;28;20202;-77
2022/02/07 10:39:50;;;;;;;50.93;2.73;;;;;;;2.69;71.99;96163.88;5050194;28;20236;-78
2022/02/07 10:47:15;;;;;;;15.67;2.13;;;;;;;3.34;68.92;96183.25;5052378;28;20655;-77
2022/02/07 10:50:04;;;;;;;5.33;1.67;;;;;;;3.36;68.49;96185.75;5050959;28;20273;-77
2022/02/07 10:53:06;;;;;;;5.07;1.60;;;;;;;3.00;69.63;96188.63;5051485;28;20197;-78
2022/02/07 10:55:35;;;;;;;5.47;1.70;;;;;;;3.11;68.37;96196.56;5052091;28;20542;-76
2022/02/07 10:58:04;;;;;;;7.37;1.60;;;;;;;3.28;68.94;96216.16;5051493;28;20332;-78
2022/02/07 11:00:38;;;;;;;9.33;1.60;;;;;;;3.45;69.33;96216.03;5051855;28;20548;-76
2022/02/07 11:03:14;;;;;;;10.23;1.67;;;;;;;3.17;70.68;96227.00;5049964;28;20182;-76
2022/02/07 11:05:46;;;;;;;6.90;2.27;;;;;;;3.27;69.67;96242.72;5050544;28;20182;-77
2022/02/07 11:08:24;;;;;;;10.93;2.00;;;;;;;3.18;69.70;96238.09;5032834;28;20171;-79
2022/02/07 11:11:09;;;;;;;8.33;1.70;;;;;;;2.98;69.88;96247.72;5050026;28;20599;-77
2022/02/07 11:13:58;;;;;;;4.53;1.67;;;;;;;3.13;70.57;96241.75;5035797;28;20177;-78
2022/02/07 11:16:54;;;;;;;6.23;1.47;;;;;;;2.91;71.14;96246.41;5033170;28;20200;-79
2022/02/07 11:22:14;;;;;;;6.47;1.90;;;;;;;3.16;71.29;96270.72;5050175;28;20201;-78
2022/02/07 11:25:10;;;;;;;5.57;1.60;;;;;;;3.10;71.94;96269.34;5048336;28;20181;-79
2022/02/07 11:27:41;;;;;;;4.33;1.60;;;;;;;3.12;72.95;96282.91;5051098;28;20181;-79
2022/02/07 11:30:12;;;;;;;5.67;1.93;;;;;;;3.13;72.33;96284.56;5033376;28;20272;-77
2022/02/07 11:32:44;;;;;;;7.03;1.63;;;;;;;2.92;71.70;96288.31;5029849;28;20236;-78
2022/02/07 11:35:17;;;;;;;6.97;2.37;;;;;;;2.84;73.82;96304.94;5035890;28;20178;-77
2022/02/07 11:37:43;;;;;;;5.77;2.00;;;;;;;2.72;72.54;96309.88;5034021;28;20205;-77
2022/02/07 11:40:29;;;;;;;9.10;4.03;;;;;;;2.72;72.76;96315.00;5028006;28;20289;-77
2022/02/07 11:43:15;;;;;;;8.13;1.53;;;;;;;2.61;73.00;96313.00;5029215;28;20186;-76
2022/02/07 11:45:48;;;;;;;8.27;2.23;;;;;;;2.41;75.02;96311.50;5030238;28;20260;-78
2022/02/07 11:48:13;;;;;;;6.63;1.70;;;;;;;2.59;75.02;96332.78;5040759;28;20180;-78
2022/02/07 11:50:42;;;;;;;6.60;1.80;;;;;;;2.50;75.42;96326.41;5050034;28;20209;-78
2022/02/07 11:53:09;;;;;;;6.30;1.70;;;;;;;2.26;75.61;96341.28;5049539;28;20178;-80
2022/02/07 11:55:41;;;;;;;9.67;2.07;;;;;;;2.37;76.45;96348.44;5050510;28;20201;-76
2022/02/07 11:58:27;;;;;;;9.70;2.50;;;;;;;2.45;75.35;96354.00;5050170;28;20177;-76
2022/02/07 12:00:57;;;;;;;8.43;1.77;;;;;;;2.34;75.11;96355.47;5050747;28;20197;-76
2022/02/07 12:03:24;;;;;;;10.70;2.07;;;;;;;2.16;75.50;96367.47;5033567;28;20181;-77
2022/02/07 12:05:51;;;;;;;7.53;3.07;;;;;;;2.27;75.82;96370.31;5049960;28;20689;-78
2022/02/07 12:08:24;;;;;;;8.73;2.20;;;;;;;2.43;76.01;96384.00;5050720;28;20181;-79
2022/02/07 12:11:07;;;;;;;5.63;1.83;;;;;;;2.24;77.48;96386.69;5028374;28;20206;-79
2022/02/07 12:13:39;;;;;;;8.27;2.30;;;;;;;2.27;77.95;96394.19;5031670;28;20281;-79
2022/02/07 12:16:16;;;;;;;11.60;4.77;;;;;;;2.27;77.36;96386.50;5052270;28;20223;-77
2022/02/07 12:18:41;;;;;;;11.47;4.63;;;;;;;2.33;77.33;96382.81;5056808;28;20178;-79
2022/02/07 12:21:14;;;;;;;11.60;3.50;;;;;;;2.58;77.55;96394.41;5039848;28;20280;-78
2022/02/07 12:23:40;;;;;;;8.90;2.70;;;;;;;2.44;77.76;96385.66;5054768;28;20193;-79
2022/02/07 12:26:10;;;;;;;8.77;2.53;;;;;;;2.23;79.02;96397.00;5053957;28;20189;-78
2022/02/07 12:31:11;;;;;;;7.37;2.50;;;;;;;2.32;79.38;96401.69;5053874;28;20244;-76
2022/02/07 12:33:38;;;;;;;6.70;2.33;;;;;;;2.16;80.30;96400.78;5053511;28;20204;-78
2022/02/07 12:36:05;;;;;;;6.90;3.57;;;;;;;2.42;80.08;96405.44;5025026;28;20222;-78
2022/02/07 12:38:37;;;;;;;6.97;2.50;;;;;;;2.37;80.44;96415.06;5043090;28;20193;-76
2022/02/07 12:41:05;;;;;;;8.40;2.87;;;;;;;2.37;80.47;96414.25;5054964;28;20249;-78
2022/02/07 12:43:35;;;;;;;6.70;2.50;;;;;;;2.22;81.37;96415.84;5037306;28;20180;-78
2022/02/07 12:46:06;;;;;;;9.67;2.53;;;;;;;2.03;82.15;96421.03;5059175;28;20174;-78
2022/02/07 12:48:33;;;;;;;10.87;3.30;;;;;;;2.18;81.57;96429.72;5053686;28;20192;-78
2022/02/07 12:51:00;;;;;;;8.20;2.90;;;;;;;2.01;82.92;96445.91;5053109;28;20217;-78
2022/02/07 12:53:27;;;;;;;7.97;3.53;;;;;;;2.27;82.05;96445.47;5052871;28;20613;-78
2022/02/07 12:55:56;;;;;;;10.03;3.30;;;;;;;2.14;82.33;96435.91;5054188;28;20547;-77
2022/02/07 12:58:25;;;;;;;7.03;2.40;;;;;;;2.10;83.50;96432.63;5051451;28;20189;-78
2022/02/07 13:00:54;;;;;;;9.67;2.93;;;;;;;2.03;84.18;96438.13;5036249;28;20201;-78
2022/02/07 13:03:20;;;;;;;7.90;2.60;;;;;;;2.12;83.88;96451.34;5035550;28;20196;-77
2022/02/07 13:05:46;;;;;;;8.07;2.33;;;;;;;2.05;83.96;96449.16;5033018;28;20182;-76
2022/02/07 13:08:16;;;;;;;9.97;2.27;;;;;;;2.02;84.12;96456.97;5026941;28;20605;-79
2022/02/07 13:10:42;;;;;;;3.43;1.77;;;;;;;1.92;84.91;96452.28;5036552;28;20209;-79
2022/02/07 13:13:39;;;;;;;12.10;2.33;;;;;;;2.04;84.63;96450.06;5051766;28;20260;-78
2022/02/07 13:16:00;;;;;;;6.40;2.40;;;;;;;2.15;84.46;96447.81;5046056;28;20181;-78
2022/02/07 13:18:32;;;;;;;6.07;2.20;;;;;;;1.91;84.56;96447.25;5035557;28;20216;-77
2022/02/07 13:20:57;;;;;;;9.27;2.50;;;;;;;1.91;85.25;96448.06;5036740;28;20209;-78
2022/02/07 13:23:23;;;;;;;6.53;2.10;;;;;;;1.90;84.60;96450.72;5052090;28;20194;-78
2022/02/07 13:25:53;;;;;;;10.83;2.53;;;;;;;1.92;85.19;96454.84;5053665;28;20262;-78
2022/02/07 13:28:24;;;;;;;5.33;2.47;;;;;;;1.93;84.98;96446.25;5035502;28;20177;-78
2022/02/07 13:30:54;;;;;;;10.87;2.57;;;;;;;1.82;85.39;96452.81;5053964;28;20209;-78
2022/02/07 13:33:19;;;;;;;9.83;2.90;;;;;;;1.88;84.94;96450.78;5035258;28;20181;-78
2022/02/07 13:35:48;;;;;;;5.20;2.37;;;;;;;1.68;84.66;96458.59;5035891;28;20191;-78
2022/02/07 13:38:16;;;;;;;5.00;2.33;;;;;;;1.62;85.28;96461.41;5053102;28;20194;-78
2022/02/07 13:40:49;;;;;;;9.87;3.80;;;;;;;1.77;84.69;96460.72;5053205;28;20202;-78
2022/02/07 13:43:24;;;;;;;9.30;2.50;;;;;;;2.02;83.73;96454.41;5052007;28;20189;-78
2022/02/07 13:45:52;;;;;;;5.43;2.27;;;;;;;2.15;83.73;96463.19;5044650;28;20192;-78
2022/02/07 13:48:19;;;;;;;6.33;2.60;;;;;;;2.39;82.54;96459.44;5024032;28;20190;-78
2022/02/07 13:50:47;;;;;;;8.43;2.50;;;;;;;2.22;83.02;96469.66;5035257;28;20998;-78
2022/02/07 13:53:16;;;;;;;6.77;2.80;;;;;;;2.42;82.23;96468.69;5051656;28;20275;-78
2022/02/07 13:55:42;;;;;;;9.40;3.00;;;;;;;2.39;82.08;96474.81;5035440;28;20654;-78
2022/02/07 13:58:14;;;;;;;8.50;3.10;;;;;;;2.23;83.01;96474.72;5026164;28;20185;-80
2022/02/07 14:00:48;;;;;;;6.93;2.67;;;;;;;2.59;81.66;96483.25;5034097;28;20202;-79
2022/02/07 14:03:21;;;;;;;10.40;3.00;;;;;;;2.47;81.85;96482.97;5053217;28;20256;-78
2022/02/07 14:05:50;;;;;;;9.23;3.07;;;;;;;2.64;81.43;96486.41;5035078;28;20213;-75
2022/02/07 14:08:16;;;;;;;8.17;2.50;;;;;;;2.48;80.69;96489.75;5035852;28;20186;-76